Time;durP1;ratioP1;P1;durP2;ratioP2;P2;SDS_P1;SDS_P2;PMS_P1;PMS_P2;Temp;Humidity;BMP_temperature;BMP_pressure;BME280_temperature;BME280_humidity;BME280_pressure;Samples;Min_cycle;Max_cycle;Signal;HPM_P1;HPM_P2
2022/05/22 00:00:37;;;;;;;;;;;;;;;15.31;61.02;95821.28;10497669;28;2048;-75
2022/05/22 00:05:42;;;;;;;;;;;;;;;15.31;61.54;95826.69;10515641;28;1766;-74
2022/05/22 00:10:45;;;;;;;;;;;;;;;15.03;62.67;95821.28;10495408;28;1898;-75
2022/05/22 00:21:11;;;;;;;;;;;;;;;14.93;64.58;95812.56;10502761;28;2086;-75
2022/05/22 00:26:15;;;;;;;;;;;;;;;15.04;64.00;95812.06;10494792;28;1975;-74
2022/05/22 00:31:18;;;;;;;;;;;;;;;14.99;64.53;95812.16;10517544;28;1942;-75
2022/05/22 00:36:22;;;;;;;;;;;;;;;15.07;64.37;95813.34;10516526;28;1883;-74
2022/05/22 00:41:26;;;;;;;;;;;;;;;14.94;65.10;95798.72;10490955;28;2025;-74
2022/05/22 00:46:30;;;;;;;;;;;;;;;14.92;65.22;95795.50;10495163;28;1923;-75
2022/05/22 00:51:33;;;;;;;;;;;;;;;14.73;67.05;95783.97;10509640;28;1907;-74
2022/05/22 00:56:38;;;;;;;;;;;;;;;14.72;67.48;95779.66;10507297;28;2594;-74
2022/05/22 01:01:41;;;;;;;;;;;;;;;14.51;68.34;95779.25;10501930;28;1901;-75
2022/05/22 01:06:45;;;;;;;;;;;;;;;14.45;69.41;95792.03;10494866;28;1966;-75
2022/05/22 01:11:49;;;;;;;;;;;;;;;14.53;69.16;95793.28;10509858;28;1897;-75
2022/05/22 01:16:53;;;;;;;;;;;;;;;14.50;69.94;95783.84;10513122;28;2218;-74
2022/05/22 01:21:59;;;;;;;;;;;;;;;14.48;70.12;95785.25;10511834;28;2109;-75
2022/05/22 01:27:04;;;;;;;;;;;;;;;14.45;71.09;95788.53;10485941;28;2000;-75
2022/05/22 01:32:14;;;;;;;;;;;;;;;14.50;70.81;95800.06;10490889;28;1976;-75
2022/05/22 01:37:17;;;;;;;;;;;;;;;14.44;71.13;95801.25;10494645;28;2528;-74
2022/05/22 01:42:22;;;;;;;;;;;;;;;14.48;70.59;95791.44;10507119;28;2055;-75
2022/05/22 01:47:26;;;;;;;;;;;;;;;14.44;70.56;95790.44;10498227;28;1976;-74
2022/05/22 01:52:29;;;;;;;;;;;;;;;14.42;70.61;95784.50;10507457;28;1971;-74
2022/05/22 01:57:33;;;;;;;;;;;;;;;14.28;68.85;95770.16;10510114;28;1955;-74
2022/05/22 02:02:38;;;;;;;;;;;;;;;14.13;69.88;95773.13;10509064;28;1934;-74
2022/05/22 02:13:03;;;;;;;;;;;;;;;14.20;70.16;95754.63;10500613;28;1955;-74
2022/05/22 02:18:06;;;;;;;;;;;;;;;14.13;71.10;95754.19;10521556;28;1991;-74
2022/05/22 02:23:10;;;;;;;;;;;;;;;14.07;71.03;95751.56;10513419;28;1932;-74
2022/05/22 02:28:17;;;;;;;;;;;;;;;14.02;71.14;95738.13;10518591;28;1853;-74
2022/05/22 02:33:21;;;;;;;;;;;;;;;13.98;71.48;95737.13;10511212;28;1649;-74
2022/05/22 02:38:26;;;;;;;;;;;;;;;14.27;70.14;95746.91;10492740;28;1985;-74
2022/05/22 02:43:30;;;;;;;;;;;;;;;14.51;68.13;95727.88;10500037;28;1959;-73
2022/05/22 02:48:33;;;;;;;;;;;;;;;14.33;68.83;95727.59;10501008;28;1897;-74
2022/05/22 02:53:37;;;;;;;;;;;;;;;14.01;70.87;95733.03;10501539;28;2286;-74
2022/05/22 02:58:40;;;;;;;;;;;;;;;13.85;71.59;95731.66;10502936;28;1998;-74
2022/05/22 03:03:43;;;;;;;;;;;;;;;13.91;71.90;95733.19;10524350;28;1824;-74
2022/05/22 03:08:48;;;;;;;;;;;;;;;13.81;71.97;95733.38;10508901;28;1819;-74
2022/05/22 03:13:52;;;;;;;;;;;;;;;13.89;71.86;95738.91;10507803;28;1733;-73
2022/05/22 03:18:56;;;;;;;;;;;;;;;13.98;72.27;95741.72;10501568;28;1976;-73
2022/05/22 03:24:03;;;;;;;;;;;;;;;14.35;70.80;95735.41;10488951;28;1963;-74
2022/05/22 03:29:07;;;;;;;;;;;;;;;13.97;71.86;95730.13;10517952;28;1919;-74
2022/05/22 03:34:11;;;;;;;;;;;;;;;13.90;71.54;95718.88;10524786;28;1935;-74
2022/05/22 03:39:14;;;;;;;;;;;;;;;14.49;69.70;95720.03;10514068;28;1947;-74
2022/05/22 03:44:18;;;;;;;;;;;;;;;13.98;71.06;95720.09;10504796;28;1899;-75
2022/05/22 03:49:22;;;;;;;;;;;;;;;14.44;69.79;95708.47;10503090;28;1974;-74
2022/05/22 03:54:26;;;;;;;;;;;;;;;14.86;67.89;95700.09;10485801;28;1954;-74
2022/05/22 03:59:31;;;;;;;;;;;;;;;14.60;69.13;95707.91;10494586;28;1985;-74
2022/05/22 04:04:35;;;;;;;;;;;;;;;14.56;68.63;95708.81;10517041;28;1907;-74
2022/05/22 04:09:38;;;;;;;;;;;;;;;14.74;66.40;95699.00;10495873;28;1697;-74
2022/05/22 04:14:42;;;;;;;;;;;;;;;15.05;65.74;95701.88;10510690;28;1975;-75
2022/05/22 04:19:46;;;;;;;;;;;;;;;15.75;62.88;95706.81;10494360;28;1965;-73
2022/05/22 04:30:17;;;;;;;;;;;;;;;15.74;62.49;95713.34;10489873;28;1888;-75
2022/05/22 04:35:20;;;;;;;;;;;;;;;16.50;59.12;95710.59;10499715;28;1934;-75
2022/05/22 04:40:23;;;;;;;;;;;;;;;16.58;58.41;95709.84;10522793;28;1947;-75
2022/05/22 04:45:27;;;;;;;;;;;;;;;16.93;56.77;95707.28;10491464;28;1912;-75
2022/05/22 04:50:31;;;;;;;;;;;;;;;16.99;56.34;95706.03;10521444;28;2145;-74
2022/05/22 04:55:35;;;;;;;;;;;;;;;17.59;54.28;95708.00;10489204;28;1904;-75
2022/05/22 05:00:38;;;;;;;;;;;;;;;17.14;54.90;95713.72;10492533;28;1918;-75
2022/05/22 05:05:42;;;;;;;;;;;;;;;16.95;55.70;95696.91;10514359;28;1466;-74
2022/05/22 05:10:45;;;;;;;;;;;;;;;17.02;54.57;95680.94;10483835;28;2119;-74
2022/05/22 05:15:51;;;;;;;;;;;;;;;17.36;53.30;95676.66;10513935;28;1942;-74
2022/05/22 05:20:54;;;;;;;;;;;;;;;17.86;51.81;95684.34;10509552;28;2015;-74
2022/05/22 05:25:58;;;;;;;;;;;;;;;18.22;50.41;95682.03;10490821;28;2533;-76
2022/05/22 05:31:03;;;;;;;;;;;;;;;18.02;50.96;95697.13;10515674;28;1987;-74
2022/05/22 05:36:08;;;;;;;;;;;;;;;18.15;50.62;95698.06;10508767;28;1987;-74
2022/05/22 05:41:12;;;;;;;;;;;;;;;18.70;48.09;95685.56;10509353;28;1979;-76
2022/05/22 05:46:15;;;;;;;;;;;;;;;18.78;46.73;95679.31;10492883;28;2109;-75
2022/05/22 05:51:19;;;;;;;;;;;;;;;18.54;47.86;95679.88;10495056;28;1920;-75
2022/05/22 05:56:23;;;;;;;;;;;;;;;18.00;47.70;95674.09;10512115;28;1636;-74
2022/05/22 06:01:28;;;;;;;;;;;;;;;18.09;46.81;95662.06;10493368;28;1924;-75
2022/05/22 06:06:31;;;;;;;;;;;;;;;18.35;47.11;95659.28;10520545;28;1987;-74
2022/05/22 06:11:34;;;;;;;;;;;;;;;18.05;46.09;95649.44;10518565;28;2001;-74
2022/05/22 06:16:39;;;;;;;;;;;;;;;18.77;46.61;95634.16;10495124;28;1707;-73
2022/05/22 06:21:43;;;;;;;;;;;;;;;18.78;44.89;95633.81;10511881;28;2200;-74
2022/05/22 06:26:47;;;;;;;;;;;;;;;19.16;44.84;95622.03;10500481;28;1887;-76
2022/05/22 06:31:50;;;;;;;;;;;;;;;19.06;43.57;95628.66;10496451;28;1849;-76
2022/05/22 06:36:54;;;;;;;;;;;;;;;19.10;42.97;95623.38;10517392;28;1951;-72
2022/05/22 06:41:57;;;;;;;;;;;;;;;19.51;43.43;95611.63;10482426;28;2081;-73
2022/05/22 06:47:01;;;;;;;;;;;;;;;19.71;42.39;95615.50;10488475;28;2162;-73
2022/05/22 06:52:04;;;;;;;;;;;;;;;19.89;41.75;95622.38;10512391;28;2141;-73
2022/05/22 06:57:08;;;;;;;;;;;;;;;19.96;41.86;95610.91;10483190;28;1983;-72
2022/05/22 07:02:11;;;;;;;;;;;;;;;19.73;43.06;95605.06;10498922;28;1915;-73
2022/05/22 07:07:14;;;;;;;;;;;;;;;19.59;41.86;95610.00;10510238;28;1946;-74
2022/05/22 07:12:18;;;;;;;;;;;;;;;20.06;42.21;95604.25;10490958;28;1980;-74
2022/05/22 07:17:24;;;;;;;;;;;;;;;19.98;43.13;95606.72;10523520;28;1860;-74
2022/05/22 07:22:28;;;;;;;;;;;;;;;19.73;42.40;95602.34;10514015;28;2013;-72
2022/05/22 07:27:31;;;;;;;;;;;;;;;19.87;43.14;95597.38;10518910;28;1979;-73
2022/05/22 07:32:35;;;;;;;;;;;;;;;19.64;43.25;95590.72;10495617;28;2076;-72
2022/05/22 07:37:39;;;;;;;;;;;;;;;20.17;42.52;95594.50;10492352;28;2053;-74
2022/05/22 07:42:42;;;;;;;;;;;;;;;19.78;42.59;95590.41;10508783;28;2121;-72
2022/05/22 07:47:46;;;;;;;;;;;;;;;20.26;41.26;95592.44;10482980;28;1971;-74
2022/05/22 07:52:49;;;;;;;;;;;;;;;19.89;41.83;95584.19;10484981;28;1868;-72
2022/05/22 07:57:52;;;;;;;;;;;;;;;20.58;41.82;95581.78;10508376;28;1931;-73
2022/05/22 08:02:56;;;;;;;;;;;;;;;20.23;40.77;95579.47;10474144;28;1962;-73
2022/05/22 08:07:59;;;;;;;;;;;;;;;20.23;41.66;95572.09;10487096;28;1871;-74
2022/05/22 08:13:03;;;;;;;;;;;;;;;20.68;41.48;95567.69;10505228;28;1666;-73
2022/05/22 08:18:07;;;;;;;;;;;;;;;20.45;42.39;95570.88;10492000;28;1817;-73
2022/05/22 08:23:11;;;;;;;;;;;21.50;95.70;;;20.91;40.58;95566.03;10498695;28;1952;-72
2022/05/22 08:28:14;;;;;;;;;;;21.50;94.60;;;20.59;40.40;95562.31;10506888;28;1910;-73
2022/05/22 08:33:17;;;;;;;;;;;21.50;93.30;;;20.56;40.46;95562.22;10488036;28;1803;-73
2022/05/22 08:38:20;;;;;;;;;;;21.50;93.20;;;20.47;41.33;95546.75;10479197;28;1902;-74
2022/05/22 08:43:23;;;;;;;;;;;21.40;93.50;;;20.87;40.63;95531.56;10511017;28;1768;-73
2022/05/22 08:48:27;;;;;;;;;;;21.60;93.60;;;20.26;41.73;95546.03;10492563;28;1790;-74
2022/05/22 08:53:30;;;;;;;;;;;21.50;93.20;;;20.42;40.77;95541.50;10490932;28;1916;-72
2022/05/22 09:03:54;;;;;;;;;;;21.60;93.50;;;20.62;40.67;95523.44;10505874;28;1902;-73
2022/05/22 09:08:57;;;;;;;;;;;21.60;93.10;;;21.32;40.38;95528.63;10484868;28;1856;-73
2022/05/22 09:14:00;;;;;;;;;;;21.90;94.00;;;20.94;40.24;95529.84;10483143;28;1784;-73
2022/05/22 09:19:03;;;;;;;;;;;22.00;92.10;;;20.68;40.68;95532.97;10511314;28;1977;-73
2022/05/22 09:24:06;;;;;;;;;;;21.80;92.30;;;20.54;40.97;95526.25;10489609;28;1897;-73
2022/05/22 09:29:09;;;;;;;;;;;21.60;92.50;;;20.61;41.33;95521.81;10497027;28;1848;-74
2022/05/22 09:34:13;;;;;;;;;;;21.70;93.40;;;20.44;40.62;95522.84;10502859;28;1877;-73
2022/05/22 09:39:16;;;;;;;;;;;21.50;92.10;;;20.98;38.82;95516.28;10480913;28;1906;-74
2022/05/22 09:44:20;;;;;;;;;;;21.60;91.30;;;21.94;38.32;95504.44;10502125;28;1833;-73
2022/05/22 09:49:43;;;;;;;;;;;22.20;99.90;;;22.05;37.35;95492.59;10504215;28;1801;-73
2022/05/22 09:54:46;;;;;;;;;;;22.50;99.90;;;21.83;38.96;95479.56;10488641;28;1715;-72
2022/05/22 10:00:05;;;;;;;;;;;22.70;99.90;;;22.36;38.34;95471.84;10505982;28;1957;-73
2022/05/22 10:05:08;;;;;;;;;;;23.00;99.90;;;21.90;37.62;95468.78;10501134;28;1806;-72
2022/05/22 10:10:11;;;;;;;;;;;23.10;99.90;;;21.83;38.97;95468.63;10506119;28;1982;-73
2022/05/22 10:15:15;;;;;;;;;;;22.80;99.90;;;21.59;38.11;95456.69;10504515;28;1808;-73
2022/05/22 10:20:21;;;;;;;;;;;22.80;99.00;;;21.83;38.12;95454.94;10495822;28;2196;-73
2022/05/22 10:25:24;;;;;;;;;;;22.70;97.90;;;22.39;36.61;95454.69;10504485;28;1948;-73
2022/05/22 10:30:27;;;;;;;;;;;23.00;96.40;;;22.47;34.03;95453.72;10492552;28;2425;-75
2022/05/22 10:35:30;;;;;;;;;;;23.30;92.80;;;22.68;34.67;95450.66;10522821;28;1822;-72
2022/05/22 10:45:51;;;;;;;;;;;24.20;85.40;;;24.91;32.08;95426.66;10489454;28;1786;-73
2022/05/22 10:50:54;;;;;;;;;;;26.20;83.60;;;25.00;31.23;95427.97;10515572;28;1895;-73
2022/05/22 10:55:57;;;;;;;;;;;27.10;81.00;;;24.26;32.00;95423.00;10491637;28;1800;-73
2022/05/22 11:01:00;;;;;;;;;;;27.00;79.60;;;24.38;31.21;95410.25;10500744;28;1979;-73
2022/05/22 11:06:03;;;;;;;;;;;27.00;78.30;;;24.82;29.34;95393.97;10496462;28;1740;-73
2022/05/22 11:11:07;;;;;;;;;;;27.40;76.40;;;24.82;29.28;95393.19;10514893;28;1802;-73
2022/05/22 11:16:09;;;;;;;;;;;27.60;75.10;;;25.49;27.55;95376.63;10488617;28;1849;-74
2022/05/22 11:21:13;;;;;;;;;;;27.80;73.50;;;25.25;28.97;95378.75;10508085;28;1968;-72
2022/05/22 11:26:16;;;;;;;;;;;28.00;73.70;;;24.39;29.42;95376.91;10507367;28;1826;-72
2022/05/22 11:31:19;;;;;;;;;;;27.00;73.30;;;23.77;29.16;95378.31;10519786;28;1941;-73
2022/05/22 11:36:23;;;;;;;;;;;25.90;72.70;;;24.08;29.96;95369.78;10491074;28;1800;-73
2022/05/22 11:41:25;;;;;;;;;;;25.30;74.80;;;23.50;30.81;95374.72;10505682;28;1980;-74
2022/05/22 11:46:29;;;;;;;;;;;24.90;75.50;;;23.49;30.49;95373.91;10486149;28;1751;-73
2022/05/22 11:51:32;;;;;;;;;;;24.60;75.50;;;23.12;31.75;95360.72;10522333;28;1669;-74
2022/05/22 11:56:35;;;;;;;;;;;24.20;76.70;;;23.20;30.70;95359.69;10515011;28;1887;-73
2022/05/22 12:01:41;;;;;;;;;;;24.20;76.20;;;23.31;30.68;95359.09;10524472;28;1894;-72
2022/05/22 12:06:44;;;;;;;;;;;24.30;76.10;;;23.68;30.41;95348.41;10512797;28;1817;-72
2022/05/22 12:11:48;;;;;;;;;;;24.40;75.90;;;23.55;28.36;95344.22;10492392;28;1873;-73
2022/05/22 12:16:52;;;;;;;;;;;24.50;73.50;;;23.51;28.49;95335.94;10503804;28;1766;-73
2022/05/22 12:21:55;;;;;;;;;;;24.50;73.00;;;23.24;28.09;95334.31;10487674;28;1917;-73
2022/05/22 12:26:59;;;;;;;;;;;24.30;72.00;;;23.77;28.61;95323.44;10501790;28;1866;-74
2022/05/22 12:32:02;;;;;;;;;;;24.60;73.30;;;23.99;27.55;95317.91;10505885;28;1770;-73
2022/05/22 12:37:05;;;;;;;;;;;24.80;72.20;;;23.12;28.02;95322.34;10486228;28;1802;-74
2022/05/22 12:42:09;;;;;;;;;;;24.40;71.50;;;23.45;27.85;95315.47;10501012;28;1910;-74
2022/05/22 12:47:13;;;;;;;;;;;24.30;71.70;;;23.52;28.29;95323.81;10499397;28;1913;-73
2022/05/22 12:52:17;;;;;;;;;;;24.40;71.80;;;23.85;28.92;95317.66;10494868;28;1818;-73
2022/05/22 12:57:22;;;;;;;;;;;24.60;72.70;;;24.22;29.09;95314.25;10516248;28;1790;-73
2022/05/22 13:02:25;;;;;;;;;;;25.00;73.50;;;23.44;27.98;95322.91;10494570;28;1969;-73
2022/05/22 13:07:28;;;;;;;;;;;24.70;71.70;;;23.62;27.60;95312.25;10507042;28;1779;-73
2022/05/22 13:12:31;;;;;;;;;;;24.50;71.20;;;23.82;27.40;95298.41;10489767;28;1709;-73
2022/05/22 13:17:35;;;;;;;;;;;24.50;70.90;;;24.34;27.09;95292.09;10503250;28;1788;-74
2022/05/22 13:22:40;;;;;;;;;;;25.00;70.90;;;24.39;29.28;95293.72;10504540;28;1910;-73
2022/05/22 13:27:43;;;;;;;;;;;25.20;73.50;;;24.41;29.32;95272.94;10501120;28;2088;-73
2022/05/22 13:32:46;;;;;;;;;;;25.10;73.30;;;24.08;28.92;95268.19;10488039;28;1784;-73
2022/05/22 13:37:49;;;;;;;;;;;25.20;72.50;;;24.34;29.55;95272.88;10516740;28;1782;-74
2022/05/22 13:42:52;;;;;;;;;;;25.20;73.50;;;23.52;30.95;95266.19;10502751;28;1914;-73
2022/05/22 13:47:56;;;;;;;;;;;24.90;73.90;;;24.04;29.36;95247.34;10486862;28;1782;-73
2022/05/22 13:52:59;;;;;;;;;;;25.00;73.40;;;24.53;29.99;95255.41;10495464;28;1737;-73
2022/05/22 13:58:02;;;;;;;;;;;25.10;74.10;;;24.22;29.44;95257.38;10510846;28;1766;-73
2022/05/22 14:03:07;;;;;;;;;;;25.30;72.90;;;24.25;30.04;95248.41;10489309;28;1981;-73
2022/05/22 14:08:10;;;;;;;;;;;25.20;73.70;;;24.28;29.84;95241.38;10477187;28;1855;-73
2022/05/22 14:13:13;;;;;;;;;;;25.10;73.40;;;24.56;29.46;95232.72;10501974;28;1768;-73
2022/05/22 14:18:16;;;;;;;;;;;25.30;73.20;;;24.08;29.51;95223.47;10508365;28;1846;-72
2022/05/22 14:23:19;;;;;;;;;;;25.20;72.70;;;24.63;29.65;95213.53;10483181;28;1979;-73
2022/05/22 14:28:23;;;;;;;;;;;25.40;73.70;;;24.54;29.33;95208.34;10510136;28;1847;-73
2022/05/22 14:33:27;;;;;;;;;;;25.40;72.90;;;24.46;29.57;95205.91;10512594;28;1782;-74
2022/05/22 14:38:31;;;;;;;;;;;25.40;72.70;;;24.15;29.46;95201.59;10492576;28;1826;-73
2022/05/22 14:43:36;;;;;;;;;;;25.40;72.10;;;24.33;29.39;95190.81;10499499;28;1918;-74
2022/05/22 14:48:39;;;;;;;;;;;25.30;72.40;;;24.38;29.12;95187.75;10507120;28;1820;-73
2022/05/22 14:53:44;;;;;;;;;;;25.40;72.00;;;24.80;28.75;95192.88;10485110;28;1761;-73
2022/05/22 14:58:47;;;;;;;;;;;25.70;71.80;;;24.48;29.10;95192.56;10509446;28;1843;-73
2022/05/22 15:03:50;;;;;;;;;;;25.60;71.50;;;23.98;29.40;95186.47;10493133;28;1939;-72
2022/05/22 15:08:54;;;;;;;;;;;25.00;72.10;;;24.18;29.10;95179.69;10499164;28;1941;-70
2022/05/22 15:13:58;;;;;;;;;;;25.00;72.10;;;23.55;29.97;95198.84;10503404;28;1822;-70
2022/05/22 15:29:45;;;;;;;;;;;24.70;72.60;;;23.99;29.66;95183.38;10470660;28;1732;-70
2022/05/22 15:34:48;;;;;;;;;;;24.70;72.80;;;23.87;29.15;95188.31;10483748;28;1853;-70
2022/05/22 15:39:51;;;;;;;;;;;24.50;72.20;;;24.21;28.98;95170.69;10520326;28;1808;-71
2022/05/22 15:44:54;;;;;;;;;;;24.70;72.40;;;24.48;29.19;95187.06;10490088;28;2307;-73
2022/05/22 15:55:18;;;;;;;;;;;25.10;71.50;;;24.46;28.76;95183.91;10489797;28;1802;-74
2022/05/22 16:00:21;;;;;;;;;;;25.10;71.60;;;25.04;28.14;95189.59;10512685;28;2004;-74
2022/05/22 16:05:25;;;;;;;;;;;25.40;71.70;;;24.12;28.95;95188.63;10474262;28;1850;-72
2022/05/22 16:10:28;;;;;;;;;;;25.10;70.90;;;24.09;28.94;95198.38;10483385;28;1870;-74
2022/05/22 16:15:31;;;;;;;;;;;24.80;71.60;;;24.39;28.96;95194.84;10501062;28;1998;-72
2022/05/22 16:20:34;;;;;;;;;;;24.90;71.90;;;24.09;29.15;95192.91;10504663;28;1914;-74
2022/05/22 16:25:37;;;;;;;;;;;24.80;72.10;;;24.31;28.82;95199.44;10507076;28;1838;-74
2022/05/22 16:30:40;;;;;;;;;;;24.90;71.80;;;23.62;29.13;95193.47;10497327;28;1846;-73
2022/05/22 16:35:44;;;;;;;;;;;24.70;71.10;;;23.70;29.27;95197.91;10511553;28;1936;-73
2022/05/22 16:40:48;;;;;;;;;;;24.40;71.40;;;23.30;30.05;95193.00;10504915;28;1940;-73
2022/05/22 16:46:12;;;;;;;;;;;24.20;71.80;;;23.34;30.08;95200.09;10508862;28;1874;-74
2022/05/22 16:56:36;;;;;;;;;;;24.10;73.30;;;23.05;30.73;95203.56;10503171;28;1823;-72
2022/05/22 17:01:39;;;;;;;;;;;24.00;72.70;;;23.08;31.46;95195.38;10507311;28;1914;-73
2022/05/22 17:06:44;;;;;;;;;;;23.90;73.50;;;23.28;31.50;95192.56;10507650;28;1873;-73
2022/05/22 17:11:48;;;;;;;;;;;23.90;74.00;;;23.27;30.88;95180.00;10507326;28;1853;-73
2022/05/22 17:16:51;;;;;;;;;;;23.90;73.40;;;23.44;31.60;95169.28;10494905;28;1870;-73
2022/05/22 17:21:54;;;;;;;;;;;24.00;74.10;;;22.89;31.95;95168.06;10492339;28;1914;-73
2022/05/22 17:26:58;;;;;;;;;;;23.90;73.90;;;22.72;32.63;95169.34;10487636;28;1925;-72
2022/05/22 17:32:01;;;;;;;;;;;23.70;74.60;;;22.60;32.30;95175.00;10512146;28;1705;-73
2022/05/22 17:37:05;;;;;;;;;;;23.50;74.60;;;22.44;32.82;95177.84;10515510;28;1798;-73
2022/05/22 17:42:08;;;;;;;;;;;23.40;74.80;;;22.43;32.79;95189.16;10497847;28;1914;-74
2022/05/22 17:47:11;;;;;;;;;;;23.30;75.20;;;22.39;33.14;95191.81;10514713;28;1849;-73
2022/05/22 17:52:15;;;;;;;;;;;23.20;75.50;;;22.14;33.22;95196.84;10493045;28;1836;-73
2022/05/22 17:57:19;;;;;;;;;;;23.10;75.30;;;21.78;34.04;95196.09;10497747;28;1765;-74
2022/05/22 18:02:23;;;;;;;;;;;22.90;76.20;;;21.74;34.66;95195.22;10495120;28;1938;-73
2022/05/22 18:07:26;;;;;;;;;;;22.80;76.60;;;21.60;34.98;95197.66;10495613;28;1897;-73
2022/05/22 18:17:50;;;;;;;;;;;22.30;80.80;;;20.96;40.38;95196.94;10517983;28;1854;-73
2022/05/22 18:22:55;;;;;;;;;;;22.10;82.50;;;20.73;41.39;95207.69;10502118;28;2072;-74
2022/05/22 18:27:58;;;;;;;;;;;21.80;83.90;;;20.72;41.78;95199.84;10493765;28;2177;-72
2022/05/22 18:33:02;;;;;;;;;;;21.70;84.50;;;20.66;41.51;95202.06;10516245;28;1966;-73
2022/05/22 18:38:06;;;;;;;;;;;21.60;84.40;;;20.59;41.41;95198.34;10489622;28;2252;-73
2022/05/22 18:43:09;;;;;;;;;;;21.50;84.50;;;20.56;41.50;95182.69;10491114;28;1973;-73
2022/05/22 18:48:19;;;;;;;;;;;21.50;84.70;;;20.45;41.94;95169.56;10484850;28;1832;-73
2022/05/22 18:53:24;;;;;;;;;;;21.20;93.10;;;20.38;42.52;95154.91;10489248;28;2236;-74
2022/05/22 18:58:28;;;;;;;;;;;21.10;89.60;;;20.43;44.15;95143.72;10487555;28;2009;-76
2022/05/22 19:03:31;;;;;;;;;;;21.20;97.80;;;20.20;44.65;95124.41;10504471;28;1965;-77
2022/05/22 19:08:34;;;;;;;;;;;21.00;92.10;;;20.08;45.37;95105.38;10526986;28;1512;-77
2022/05/22 19:13:38;;;;;;;;;;;20.90;92.10;;;20.07;45.37;95092.91;10493873;28;1767;-76
2022/05/22 19:18:41;;;;;;;;;;;20.90;93.30;;;20.12;45.07;95084.47;10516917;28;1536;-76
2022/05/22 19:23:45;;;;;;;;;;;20.80;91.50;;;20.08;46.41;95081.63;10524540;28;1971;-77
2022/05/22 19:28:50;;;;;;;;;;;20.90;91.50;;;19.65;47.58;95077.75;10508605;28;1350;-76
2022/05/22 19:33:53;;;;;;;;;;;20.70;91.40;;;19.52;47.60;95089.03;10506722;28;1593;-77
2022/05/22 19:38:58;;;;;;;;;;;20.50;92.60;;;19.78;47.21;95105.75;10503930;28;1890;-76
2022/05/22 19:44:01;;;;;;;;;;;20.50;92.80;;;19.59;47.31;95078.34;10515440;28;1977;-75
2022/05/22 19:49:05;;;;;;;;;;;20.40;91.40;;;19.73;48.12;95097.84;10489132;28;2308;-75
2022/05/22 19:59:54;;;;;;;;;;;;;;;19.27;47.21;95115.59;10500503;28;2354;-74
2022/05/22 20:04:58;;;;;;;;;;;19.90;99.90;;;19.29;46.34;95121.50;10482178;28;2427;-72
2022/05/22 20:10:01;;;;;;;;;;;20.10;98.90;;;19.31;46.38;95125.47;10501661;28;2310;-75
2022/05/22 20:15:04;;;;;;;;;;;20.00;99.60;;;19.25;46.26;95145.13;10484661;28;2218;-74
2022/05/22 20:20:07;;;;;;;;;;;20.10;99.80;;;19.31;46.32;95160.09;10480371;28;2471;-75
2022/05/22 20:25:10;;;;;;;;;;;20.00;99.90;;;19.36;45.57;95157.91;10487069;28;2306;-74
2022/05/22 20:30:13;;;;;;;;;;;20.10;99.90;;;19.45;45.22;95136.75;10511564;28;2417;-74
2022/05/22 20:35:16;;;;;;;;;;;20.10;99.90;;;19.43;45.71;95130.88;10493316;28;2277;-74
2022/05/22 20:40:19;;;;;;;;;;;20.10;99.90;;;19.39;46.19;95129.19;10493539;28;2792;-74
2022/05/22 20:45:23;;;;;;;;;;;20.10;99.90;;;19.39;45.68;95138.16;10513416;28;2353;-73
2022/05/22 20:50:26;;;;;;;;;;;20.10;99.90;;;19.41;45.97;95141.34;10494062;28;2375;-74
2022/05/22 21:00:51;;;;;;;;;;;20.10;99.90;;;19.37;46.01;95109.66;10511004;28;2251;-74
2022/05/22 21:05:55;;;;;;;;;;;20.10;99.90;;;19.30;51.28;95118.44;10495666;28;2724;-75
2022/05/22 21:10:57;;;;;;;;;;;20.10;99.90;;;18.73;53.79;95126.78;10488593;28;2803;-74
2022/05/22 21:16:01;;;;;;;;;;;19.80;99.90;;;18.39;55.03;95128.00;10510159;28;2274;-75
2022/05/22 21:21:04;;;;;;;;;;;19.50;99.90;;;18.22;57.53;95121.63;10507857;28;2472;-75
2022/05/22 21:31:45;;;;;;;;;;;19.10;99.90;;;18.40;53.59;95091.50;10488938;28;2476;-75
2022/05/22 21:36:48;;;;;;;;;;;19.20;99.90;;;18.51;52.32;95084.44;10509983;28;2223;-74
2022/05/22 21:41:51;;;;;;;;;;;19.20;99.90;;;18.54;52.45;95081.84;10514599;28;2285;-75
2022/05/22 21:46:54;;;;;;;;;;;19.20;99.90;;;18.52;51.15;95069.72;10501788;28;2354;-73
2022/05/22 21:51:57;;;;;;;;;;;19.20;99.90;;;18.51;51.74;95079.00;10513711;28;2124;-74
2022/05/22 21:57:00;;;;;;;;;;;19.20;99.90;;;18.36;52.79;95067.69;10499767;28;2133;-74
2022/05/22 22:02:03;;;;;;;;;;;19.20;99.90;;;18.25;53.53;95058.38;10512881;28;2088;-74
2022/05/22 22:07:06;;;;;;;;;;;19.00;99.90;;;18.08;54.58;95037.63;10501748;28;2113;-74
2022/05/22 22:12:10;;;;;;;;;;;19.00;99.90;;;18.03;55.32;95037.06;10482299;28;2203;-74
2022/05/22 22:17:14;;;;;;;;;;;18.80;99.90;;;18.03;55.64;95026.19;10506980;28;2164;-74
2022/05/22 22:22:17;;;;;;;;;;;18.90;99.90;;;18.01;55.33;95025.75;10503069;28;2291;-74
2022/05/22 22:27:20;;;;;;;;;;;18.80;99.90;;;18.11;55.57;95030.72;10500754;28;2282;-73
2022/05/22 22:32:23;;;;;;;;;;;18.80;99.90;;;18.08;55.69;95023.25;10517027;28;2251;-73
2022/05/22 22:37:26;;;;;;;;;;;18.80;99.90;;;17.92;56.97;95022.31;10522230;28;2220;-74
2022/05/22 22:42:30;;;;;;;;;;;18.80;99.90;;;17.66;58.49;95017.94;10514563;28;2447;-74
2022/05/22 22:47:33;;;;;;;;;;;18.70;99.90;;;17.57;59.44;95006.38;10509332;28;2148;-73
2022/05/22 22:52:36;;;;;;;;;;;18.40;99.90;;;17.62;59.67;94998.00;10495293;28;2206;-74
2022/05/22 23:03:04;;;;;;;;;;;18.30;99.90;;;17.46;59.94;94980.78;10512279;28;2299;-73
2022/05/22 23:08:09;;;;;;;;;;;18.40;99.90;;;17.44;60.67;94993.91;10506797;28;2262;-74
2022/05/22 23:13:15;;;;;;;;;;;18.20;99.90;;;17.39;60.64;94985.97;10520297;28;2215;-73
2022/05/22 23:18:19;;;;;;;;;;;18.10;99.90;;;17.30;61.46;94977.88;10494260;28;2270;-72
2022/05/22 23:23:23;;;;;;;;;;;18.00;99.90;;;17.16;62.08;94980.91;10519446;28;2231;-73
2022/05/22 23:28:26;;;;;;;;;;;18.00;99.90;;;17.16;61.89;94977.38;10498534;28;2291;-73
2022/05/22 23:33:29;;;;;;;;;;;17.90;99.90;;;17.05;62.33;94982.47;10494563;28;2338;-73
2022/05/22 23:39:14;;;;;;;;;;;17.80;99.90;;;17.11;62.03;94981.09;10511209;28;2291;-75
2022/05/22 23:43:55;;;;;;;;;;;17.90;99.90;;;16.99;62.79;94973.72;10513021;28;2305;-73
2022/05/22 23:48:59;;;;;;;;;;;17.80;99.90;;;16.94;63.43;94965.00;10514610;28;2255;-74
2022/05/22 23:54:03;;;;;;;;;;;17.80;99.90;;;16.99;62.45;94956.66;10504032;28;2261;-73
2022/05/22 23:59:06;;;;;;;;;;;17.80;99.90;;;17.06;61.98;94946.03;10498625;28;2255;-73
